sensor_id;sensor_type;location;lat;lon;timestamp;P1;durP1;ratioP1;P2;durP2;ratioP2
55827;SDS011;41758;51.992;5.890;2022-09-03T00:00:03;3.53;;;1.50;;
55827;SDS011;41758;51.992;5.890;2022-09-03T00:02:43;3.92;;;1.60;;
55827;SDS011;41758;51.992;5.890;2022-09-03T00:11:02;2.75;;;1.40;;
55827;SDS011;41758;51.992;5.890;2022-09-03T00:15:58;4.50;;;1.60;;
55827;SDS011;41758;51.992;5.890;2022-09-03T00:18:30;4.40;;;1.60;;
55827;SDS011;41758;51.992;5.890;2022-09-03T00:21:08;5.43;;;1.40;;
55827;SDS011;41758;51.992;5.890;2022-09-03T00:23:40;4.32;;;1.80;;
55827;SDS011;41758;51.992;5.890;2022-09-03T00:28:39;3.63;;;1.70;;
55827;SDS011;41758;51.992;5.890;2022-09-03T00:31:10;3.95;;;1.63;;
55827;SDS011;41758;51.992;5.890;2022-09-03T00:33:38;5.30;;;1.80;;
55827;SDS011;41758;51.992;5.890;2022-09-03T00:36:12;4.22;;;1.58;;
55827;SDS011;41758;51.992;5.890;2022-09-03T00:38:59;3.80;;;1.45;;
55827;SDS011;41758;51.992;5.890;2022-09-03T00:41:32;2.92;;;1.40;;
55827;SDS011;41758;51.992;5.890;2022-09-03T00:52:36;3.85;;;1.70;;
55827;SDS011;41758;51.992;5.890;2022-09-03T01:00:50;4.55;;;1.65;;
55827;SDS011;41758;51.992;5.890;2022-09-03T01:06:17;4.82;;;1.77;;
55827;SDS011;41758;51.992;5.890;2022-09-03T01:14:25;5.85;;;1.65;;
55827;SDS011;41758;51.992;5.890;2022-09-03T01:25:11;2.83;;;1.50;;
55827;SDS011;41758;51.992;5.890;2022-09-03T01:31:01;3.97;;;1.75;;
55827;SDS011;41758;51.992;5.890;2022-09-03T01:33:46;2.40;;;1.48;;
55827;SDS011;41758;51.992;5.890;2022-09-03T01:36:36;4.53;;;1.48;;
55827;SDS011;41758;51.992;5.890;2022-09-03T01:39:49;4.65;;;1.73;;
55827;SDS011;41758;51.992;5.890;2022-09-03T01:42:25;5.07;;;1.88;;
55827;SDS011;41758;51.992;5.890;2022-09-03T01:50:47;3.95;;;1.60;;
55827;SDS011;41758;51.992;5.890;2022-09-03T01:56:18;3.50;;;1.55;;
55827;SDS011;41758;51.992;5.890;2022-09-03T01:59:11;2.63;;;1.55;;
55827;SDS011;41758;51.992;5.890;2022-09-03T02:01:46;3.28;;;1.60;;
55827;SDS011;41758;51.992;5.890;2022-09-03T02:04:26;4.03;;;1.48;;
55827;SDS011;41758;51.992;5.890;2022-09-03T02:06:53;3.70;;;1.70;;
55827;SDS011;41758;51.992;5.890;2022-09-03T02:09:22;3.13;;;1.48;;
55827;SDS011;41758;51.992;5.890;2022-09-03T02:11:49;3.15;;;1.48;;
55827;SDS011;41758;51.992;5.890;2022-09-03T02:14:23;4.80;;;1.60;;
55827;SDS011;41758;51.992;5.890;2022-09-03T02:16:51;3.15;;;1.70;;
55827;SDS011;41758;51.992;5.890;2022-09-03T02:19:18;3.67;;;1.80;;
55827;SDS011;41758;51.992;5.890;2022-09-03T02:21:51;4.22;;;1.58;;
55827;SDS011;41758;51.992;5.890;2022-09-03T02:24:18;5.43;;;1.70;;
55827;SDS011;41758;51.992;5.890;2022-09-03T02:26:44;2.97;;;1.58;;
55827;SDS011;41758;51.992;5.890;2022-09-03T02:29:11;3.65;;;1.50;;
55827;SDS011;41758;51.992;5.890;2022-09-03T02:31:38;3.75;;;1.50;;
55827;SDS011;41758;51.992;5.890;2022-09-03T02:34:03;3.15;;;1.40;;
55827;SDS011;41758;51.992;5.890;2022-09-03T02:36:30;3.05;;;1.45;;
55827;SDS011;41758;51.992;5.890;2022-09-03T02:38:59;6.05;;;1.77;;
55827;SDS011;41758;51.992;5.890;2022-09-03T02:41:25;2.78;;;1.65;;
55827;SDS011;41758;51.992;5.890;2022-09-03T02:43:53;4.55;;;1.80;;
55827;SDS011;41758;51.992;5.890;2022-09-03T02:46:43;3.00;;;1.52;;
55827;SDS011;41758;51.992;5.890;2022-09-03T02:49:12;3.38;;;1.67;;
55827;SDS011;41758;51.992;5.890;2022-09-03T02:51:39;2.60;;;1.48;;
55827;SDS011;41758;51.992;5.890;2022-09-03T02:54:07;3.47;;;1.60;;
55827;SDS011;41758;51.992;5.890;2022-09-03T02:56:34;2.97;;;1.60;;
55827;SDS011;41758;51.992;5.890;2022-09-03T02:59:01;4.57;;;1.52;;
55827;SDS011;41758;51.992;5.890;2022-09-03T03:01:28;3.45;;;1.60;;
55827;SDS011;41758;51.992;5.890;2022-09-03T03:03:53;3.55;;;1.58;;
55827;SDS011;41758;51.992;5.890;2022-09-03T03:06:19;3.55;;;1.60;;
55827;SDS011;41758;51.992;5.890;2022-09-03T03:08:46;4.60;;;1.60;;
55827;SDS011;41758;51.992;5.890;2022-09-03T03:11:16;3.90;;;1.67;;
55827;SDS011;41758;51.992;5.890;2022-09-03T03:13:44;3.60;;;1.48;;
55827;SDS011;41758;51.992;5.890;2022-09-03T03:16:11;3.80;;;1.63;;
55827;SDS011;41758;51.992;5.890;2022-09-03T03:18:37;4.10;;;1.55;;
55827;SDS011;41758;51.992;5.890;2022-09-03T03:21:07;3.42;;;1.52;;
55827;SDS011;41758;51.992;5.890;2022-09-03T03:23:34;2.42;;;1.40;;
55827;SDS011;41758;51.992;5.890;2022-09-03T03:26:02;4.55;;;1.70;;
55827;SDS011;41758;51.992;5.890;2022-09-03T03:28:29;4.20;;;1.65;;
55827;SDS011;41758;51.992;5.890;2022-09-03T03:30:57;3.78;;;1.70;;
55827;SDS011;41758;51.992;5.890;2022-09-03T03:33:34;4.32;;;1.50;;
55827;SDS011;41758;51.992;5.890;2022-09-03T03:36:06;2.50;;;1.50;;
55827;SDS011;41758;51.992;5.890;2022-09-03T03:38:33;3.67;;;1.75;;
55827;SDS011;41758;51.992;5.890;2022-09-03T03:41:05;2.88;;;1.40;;
55827;SDS011;41758;51.992;5.890;2022-09-03T03:43:36;5.47;;;1.80;;
55827;SDS011;41758;51.992;5.890;2022-09-03T03:46:03;2.88;;;1.60;;
55827;SDS011;41758;51.992;5.890;2022-09-03T03:48:29;2.97;;;1.40;;
55827;SDS011;41758;51.992;5.890;2022-09-03T03:50:58;3.47;;;1.63;;
55827;SDS011;41758;51.992;5.890;2022-09-03T03:53:25;2.92;;;1.60;;
55827;SDS011;41758;51.992;5.890;2022-09-03T03:55:59;4.00;;;1.80;;
55827;SDS011;41758;51.992;5.890;2022-09-03T03:58:29;3.63;;;1.60;;
55827;SDS011;41758;51.992;5.890;2022-09-03T04:01:03;3.60;;;1.60;;
55827;SDS011;41758;51.992;5.890;2022-09-03T04:03:30;4.35;;;1.50;;
55827;SDS011;41758;51.992;5.890;2022-09-03T04:05:56;4.32;;;1.60;;
55827;SDS011;41758;51.992;5.890;2022-09-03T04:08:24;3.20;;;1.50;;
55827;SDS011;41758;51.992;5.890;2022-09-03T04:10:49;2.72;;;1.60;;
55827;SDS011;41758;51.992;5.890;2022-09-03T04:13:15;4.07;;;1.95;;
55827;SDS011;41758;51.992;5.890;2022-09-03T04:15:41;2.92;;;1.50;;
55827;SDS011;41758;51.992;5.890;2022-09-03T04:18:07;2.47;;;1.52;;
55827;SDS011;41758;51.992;5.890;2022-09-03T04:20:34;3.45;;;1.52;;
55827;SDS011;41758;51.992;5.890;2022-09-03T04:23:00;2.63;;;1.60;;
55827;SDS011;41758;51.992;5.890;2022-09-03T04:25:26;3.08;;;1.33;;
55827;SDS011;41758;51.992;5.890;2022-09-03T04:27:52;4.18;;;1.55;;
55827;SDS011;41758;51.992;5.890;2022-09-03T04:30:18;3.72;;;1.60;;
55827;SDS011;41758;51.992;5.890;2022-09-03T04:32:44;2.38;;;1.45;;
55827;SDS011;41758;51.992;5.890;2022-09-03T04:35:20;3.53;;;1.80;;
55827;SDS011;41758;51.992;5.890;2022-09-03T04:37:47;3.67;;;1.70;;
55827;SDS011;41758;51.992;5.890;2022-09-03T04:40:13;3.88;;;1.45;;
55827;SDS011;41758;51.992;5.890;2022-09-03T04:42:39;2.20;;;1.30;;
55827;SDS011;41758;51.992;5.890;2022-09-03T04:45:05;2.30;;;1.40;;
55827;SDS011;41758;51.992;5.890;2022-09-03T04:47:31;2.40;;;1.50;;
55827;SDS011;41758;51.992;5.890;2022-09-03T04:49:57;3.28;;;1.50;;
55827;SDS011;41758;51.992;5.890;2022-09-03T04:52:22;2.97;;;1.33;;
55827;SDS011;41758;51.992;5.890;2022-09-03T04:54:49;4.07;;;1.48;;
55827;SDS011;41758;51.992;5.890;2022-09-03T04:57:15;3.10;;;1.60;;
55827;SDS011;41758;51.992;5.890;2022-09-03T04:59:40;4.07;;;1.50;;
55827;SDS011;41758;51.992;5.890;2022-09-03T05:02:07;2.60;;;1.40;;
55827;SDS011;41758;51.992;5.890;2022-09-03T05:04:34;3.97;;;1.40;;
55827;SDS011;41758;51.992;5.890;2022-09-03T05:06:59;3.25;;;1.60;;
55827;SDS011;41758;51.992;5.890;2022-09-03T05:09:25;3.40;;;1.50;;
55827;SDS011;41758;51.992;5.890;2022-09-03T05:11:51;3.08;;;1.33;;
55827;SDS011;41758;51.992;5.890;2022-09-03T05:14:16;2.88;;;1.40;;
55827;SDS011;41758;51.992;5.890;2022-09-03T05:16:42;3.60;;;1.40;;
55827;SDS011;41758;51.992;5.890;2022-09-03T05:19:08;2.00;;;1.30;;
55827;SDS011;41758;51.992;5.890;2022-09-03T05:21:35;2.38;;;1.50;;
55827;SDS011;41758;51.992;5.890;2022-09-03T05:24:01;3.53;;;1.60;;
55827;SDS011;41758;51.992;5.890;2022-09-03T05:26:28;4.50;;;1.55;;
55827;SDS011;41758;51.992;5.890;2022-09-03T05:28:56;4.78;;;1.30;;
55827;SDS011;41758;51.992;5.890;2022-09-03T05:31:26;3.30;;;1.30;;
55827;SDS011;41758;51.992;5.890;2022-09-03T05:33:56;2.25;;;1.30;;
55827;SDS011;41758;51.992;5.890;2022-09-03T05:36:24;3.03;;;1.40;;
55827;SDS011;41758;51.992;5.890;2022-09-03T05:38:54;3.95;;;1.50;;
55827;SDS011;41758;51.992;5.890;2022-09-03T05:41:20;2.30;;;1.35;;
55827;SDS011;41758;51.992;5.890;2022-09-03T05:43:48;3.28;;;1.50;;
55827;SDS011;41758;51.992;5.890;2022-09-03T05:46:20;4.43;;;1.55;;
55827;SDS011;41758;51.992;5.890;2022-09-03T05:48:55;3.03;;;1.60;;
55827;SDS011;41758;51.992;5.890;2022-09-03T05:51:26;3.50;;;1.40;;
55827;SDS011;41758;51.992;5.890;2022-09-03T05:53:52;2.88;;;1.35;;
55827;SDS011;41758;51.992;5.890;2022-09-03T05:56:19;3.67;;;1.38;;
55827;SDS011;41758;51.992;5.890;2022-09-03T05:58:47;2.90;;;1.27;;
55827;SDS011;41758;51.992;5.890;2022-09-03T06:01:25;4.00;;;1.52;;
55827;SDS011;41758;51.992;5.890;2022-09-03T06:03:57;4.72;;;1.50;;
55827;SDS011;41758;51.992;5.890;2022-09-03T06:06:24;3.08;;;1.23;;
55827;SDS011;41758;51.992;5.890;2022-09-03T06:08:52;2.47;;;1.25;;
55827;SDS011;41758;51.992;5.890;2022-09-03T06:11:19;3.90;;;1.60;;
55827;SDS011;41758;51.992;5.890;2022-09-03T06:13:48;3.13;;;1.40;;
55827;SDS011;41758;51.992;5.890;2022-09-03T06:16:14;3.47;;;1.60;;
55827;SDS011;41758;51.992;5.890;2022-09-03T06:18:39;3.13;;;1.42;;
55827;SDS011;41758;51.992;5.890;2022-09-03T06:21:06;5.57;;;1.45;;
55827;SDS011;41758;51.992;5.890;2022-09-03T06:23:32;3.25;;;1.50;;
55827;SDS011;41758;51.992;5.890;2022-09-03T06:26:06;2.33;;;1.48;;
55827;SDS011;41758;51.992;5.890;2022-09-03T06:28:37;2.50;;;1.45;;
55827;SDS011;41758;51.992;5.890;2022-09-03T06:31:06;2.85;;;1.50;;
55827;SDS011;41758;51.992;5.890;2022-09-03T06:33:33;3.35;;;1.27;;
55827;SDS011;41758;51.992;5.890;2022-09-03T06:36:01;3.65;;;1.42;;
55827;SDS011;41758;51.992;5.890;2022-09-03T06:38:29;3.30;;;1.60;;
55827;SDS011;41758;51.992;5.890;2022-09-03T06:40:59;3.35;;;1.40;;
55827;SDS011;41758;51.992;5.890;2022-09-03T06:43:28;2.15;;;1.38;;
55827;SDS011;41758;51.992;5.890;2022-09-03T06:45:59;4.13;;;1.45;;
55827;SDS011;41758;51.992;5.890;2022-09-03T06:48:26;3.08;;;1.45;;
55827;SDS011;41758;51.992;5.890;2022-09-03T06:50:58;4.95;;;1.60;;
55827;SDS011;41758;51.992;5.890;2022-09-03T06:53:29;2.30;;;1.42;;
55827;SDS011;41758;51.992;5.890;2022-09-03T06:55:57;2.67;;;1.55;;
55827;SDS011;41758;51.992;5.890;2022-09-03T06:58:29;3.08;;;1.50;;
55827;SDS011;41758;51.992;5.890;2022-09-03T07:01:00;3.80;;;1.50;;
55827;SDS011;41758;51.992;5.890;2022-09-03T07:03:27;4.38;;;1.50;;
55827;SDS011;41758;51.992;5.890;2022-09-03T07:05:52;4.22;;;1.70;;
55827;SDS011;41758;51.992;5.890;2022-09-03T07:08:18;4.53;;;1.45;;
55827;SDS011;41758;51.992;5.890;2022-09-03T07:10:44;4.60;;;1.60;;
55827;SDS011;41758;51.992;5.890;2022-09-03T07:13:11;4.28;;;1.63;;
55827;SDS011;41758;51.992;5.890;2022-09-03T07:15:37;2.95;;;1.60;;
55827;SDS011;41758;51.992;5.890;2022-09-03T07:18:05;3.35;;;1.50;;
55827;SDS011;41758;51.992;5.890;2022-09-03T07:20:31;3.72;;;1.55;;
55827;SDS011;41758;51.992;5.890;2022-09-03T07:22:56;4.65;;;1.60;;
55827;SDS011;41758;51.992;5.890;2022-09-03T07:25:23;3.58;;;1.50;;
55827;SDS011;41758;51.992;5.890;2022-09-03T07:27:50;4.82;;;1.73;;
55827;SDS011;41758;51.992;5.890;2022-09-03T07:30:16;2.83;;;1.42;;
55827;SDS011;41758;51.992;5.890;2022-09-03T07:32:44;4.82;;;1.60;;
55827;SDS011;41758;51.992;5.890;2022-09-03T07:35:11;4.72;;;1.65;;
55827;SDS011;41758;51.992;5.890;2022-09-03T07:37:39;4.25;;;1.60;;
55827;SDS011;41758;51.992;5.890;2022-09-03T07:40:07;15.43;;;1.90;;
55827;SDS011;41758;51.992;5.890;2022-09-03T07:42:36;5.20;;;1.80;;
55827;SDS011;41758;51.992;5.890;2022-09-03T07:45:05;4.78;;;1.60;;
55827;SDS011;41758;51.992;5.890;2022-09-03T07:47:35;4.50;;;1.60;;
55827;SDS011;41758;51.992;5.890;2022-09-03T07:50:01;4.07;;;1.50;;
55827;SDS011;41758;51.992;5.890;2022-09-03T07:52:28;2.58;;;1.40;;
55827;SDS011;41758;51.992;5.890;2022-09-03T07:54:54;3.83;;;1.35;;
55827;SDS011;41758;51.992;5.890;2022-09-03T07:57:20;4.38;;;1.63;;
55827;SDS011;41758;51.992;5.890;2022-09-03T07:59:45;3.40;;;1.50;;
55827;SDS011;41758;51.992;5.890;2022-09-03T08:02:12;4.18;;;1.60;;
55827;SDS011;41758;51.992;5.890;2022-09-03T08:04:37;20.33;;;10.07;;
55827;SDS011;41758;51.992;5.890;2022-09-03T08:07:04;7.65;;;3.75;;
55827;SDS011;41758;51.992;5.890;2022-09-03T08:09:30;11.00;;;6.15;;
55827;SDS011;41758;51.992;5.890;2022-09-03T08:11:57;8.32;;;3.08;;
55827;SDS011;41758;51.992;5.890;2022-09-03T08:14:22;4.63;;;2.30;;
55827;SDS011;41758;51.992;5.890;2022-09-03T08:16:48;4.60;;;2.10;;
55827;SDS011;41758;51.992;5.890;2022-09-03T08:19:14;4.10;;;1.83;;
55827;SDS011;41758;51.992;5.890;2022-09-03T08:21:42;4.10;;;1.90;;
55827;SDS011;41758;51.992;5.890;2022-09-03T08:24:09;5.43;;;1.73;;
55827;SDS011;41758;51.992;5.890;2022-09-03T08:26:36;4.15;;;1.98;;
55827;SDS011;41758;51.992;5.890;2022-09-03T08:29:04;6.72;;;1.92;;
55827;SDS011;41758;51.992;5.890;2022-09-03T08:31:30;5.07;;;1.90;;
55827;SDS011;41758;51.992;5.890;2022-09-03T08:33:59;4.88;;;1.80;;
55827;SDS011;41758;51.992;5.890;2022-09-03T08:36:31;4.72;;;1.98;;
55827;SDS011;41758;51.992;5.890;2022-09-03T08:38:59;5.00;;;1.92;;
55827;SDS011;41758;51.992;5.890;2022-09-03T08:41:34;4.43;;;1.70;;
55827;SDS011;41758;51.992;5.890;2022-09-03T08:55:00;7.10;;;1.77;;
55827;SDS011;41758;51.992;5.890;2022-09-03T08:57:36;5.18;;;1.83;;
55827;SDS011;41758;51.992;5.890;2022-09-03T09:00:07;5.10;;;1.58;;
55827;SDS011;41758;51.992;5.890;2022-09-03T09:05:12;4.55;;;2.00;;
55827;SDS011;41758;51.992;5.890;2022-09-03T09:10:45;4.15;;;1.60;;
55827;SDS011;41758;51.992;5.890;2022-09-03T09:21:39;4.82;;;1.88;;
55827;SDS011;41758;51.992;5.890;2022-09-03T09:24:18;4.10;;;1.80;;
55827;SDS011;41758;51.992;5.890;2022-09-03T09:26:48;3.33;;;1.60;;
55827;SDS011;41758;51.992;5.890;2022-09-03T09:29:16;3.40;;;1.63;;
55827;SDS011;41758;51.992;5.890;2022-09-03T09:31:41;3.42;;;1.48;;
55827;SDS011;41758;51.992;5.890;2022-09-03T09:34:09;3.70;;;1.70;;
55827;SDS011;41758;51.992;5.890;2022-09-03T09:36:48;4.90;;;1.80;;
55827;SDS011;41758;51.992;5.890;2022-09-03T09:39:16;3.33;;;1.50;;
55827;SDS011;41758;51.992;5.890;2022-09-03T09:41:53;6.50;;;1.80;;
55827;SDS011;41758;51.992;5.890;2022-09-03T09:44:23;4.20;;;1.80;;
55827;SDS011;41758;51.992;5.890;2022-09-03T09:46:50;3.90;;;1.85;;
55827;SDS011;41758;51.992;5.890;2022-09-03T09:49:28;4.50;;;1.50;;
55827;SDS011;41758;51.992;5.890;2022-09-03T09:52:10;5.03;;;1.83;;
55827;SDS011;41758;51.992;5.890;2022-09-03T09:54:38;5.13;;;1.63;;
55827;SDS011;41758;51.992;5.890;2022-09-03T09:57:06;4.05;;;1.70;;
55827;SDS011;41758;51.992;5.890;2022-09-03T09:59:38;3.92;;;1.58;;
55827;SDS011;41758;51.992;5.890;2022-09-03T10:02:14;5.00;;;1.60;;
55827;SDS011;41758;51.992;5.890;2022-09-03T10:10:00;2.92;;;1.45;;
55827;SDS011;41758;51.992;5.890;2022-09-03T10:12:43;4.00;;;1.73;;
55827;SDS011;41758;51.992;5.890;2022-09-03T10:20:21;3.45;;;1.45;;
55827;SDS011;41758;51.992;5.890;2022-09-03T10:25:21;4.35;;;1.65;;
55827;SDS011;41758;51.992;5.890;2022-09-03T10:27:51;4.72;;;1.70;;
55827;SDS011;41758;51.992;5.890;2022-09-03T10:30:18;4.15;;;1.65;;
55827;SDS011;41758;51.992;5.890;2022-09-03T10:35:31;5.43;;;1.60;;
55827;SDS011;41758;51.992;5.890;2022-09-03T10:38:14;4.13;;;1.50;;
55827;SDS011;41758;51.992;5.890;2022-09-03T10:41:17;5.22;;;1.70;;
55827;SDS011;41758;51.992;5.890;2022-09-03T10:46:27;5.65;;;1.50;;
55827;SDS011;41758;51.992;5.890;2022-09-03T10:49:04;3.13;;;1.67;;
55827;SDS011;41758;51.992;5.890;2022-09-03T11:10:49;5.05;;;1.50;;
55827;SDS011;41758;51.992;5.890;2022-09-03T11:15:59;4.82;;;1.40;;
55827;SDS011;41758;51.992;5.890;2022-09-03T11:18:34;4.30;;;1.50;;
55827;SDS011;41758;51.992;5.890;2022-09-03T11:21:08;2.67;;;1.30;;
55827;SDS011;41758;51.992;5.890;2022-09-03T11:23:39;4.38;;;1.30;;
55827;SDS011;41758;51.992;5.890;2022-09-03T11:26:09;4.50;;;1.50;;
55827;SDS011;41758;51.992;5.890;2022-09-03T11:33:58;2.22;;;1.10;;
55827;SDS011;41758;51.992;5.890;2022-09-03T11:36:33;2.63;;;1.17;;
55827;SDS011;41758;51.992;5.890;2022-09-03T11:44:23;2.45;;;1.23;;
55827;SDS011;41758;51.992;5.890;2022-09-03T11:47:00;3.15;;;1.42;;
55827;SDS011;41758;51.992;5.890;2022-09-03T11:49:29;4.80;;;1.50;;
55827;SDS011;41758;51.992;5.890;2022-09-03T11:51:58;3.05;;;1.20;;
55827;SDS011;41758;51.992;5.890;2022-09-03T11:54:26;2.78;;;1.33;;
55827;SDS011;41758;51.992;5.890;2022-09-03T11:57:04;4.15;;;1.20;;
55827;SDS011;41758;51.992;5.890;2022-09-03T11:59:35;3.50;;;1.42;;
55827;SDS011;41758;51.992;5.890;2022-09-03T12:02:03;4.80;;;1.65;;
55827;SDS011;41758;51.992;5.890;2022-09-03T12:18:59;4.80;;;1.50;;
55827;SDS011;41758;51.992;5.890;2022-09-03T12:21:29;4.97;;;1.50;;
55827;SDS011;41758;51.992;5.890;2022-09-03T12:23:55;5.22;;;1.50;;
55827;SDS011;41758;51.992;5.890;2022-09-03T12:26:22;4.13;;;1.50;;
55827;SDS011;41758;51.992;5.890;2022-09-03T12:28:55;3.20;;;1.42;;
55827;SDS011;41758;51.992;5.890;2022-09-03T12:31:23;4.20;;;1.50;;
55827;SDS011;41758;51.992;5.890;2022-09-03T12:36:23;4.35;;;1.75;;
55827;SDS011;41758;51.992;5.890;2022-09-03T12:38:50;4.18;;;1.40;;
55827;SDS011;41758;51.992;5.890;2022-09-03T12:41:24;3.60;;;1.42;;
55827;SDS011;41758;51.992;5.890;2022-09-03T12:43:56;3.20;;;1.35;;
55827;SDS011;41758;51.992;5.890;2022-09-03T12:46:27;5.15;;;1.35;;
55827;SDS011;41758;51.992;5.890;2022-09-03T12:48:58;4.03;;;1.40;;
55827;SDS011;41758;51.992;5.890;2022-09-03T12:51:33;4.13;;;1.45;;
55827;SDS011;41758;51.992;5.890;2022-09-03T12:54:01;3.60;;;1.95;;
55827;SDS011;41758;51.992;5.890;2022-09-03T12:56:31;3.38;;;1.40;;
55827;SDS011;41758;51.992;5.890;2022-09-03T12:59:06;4.68;;;1.50;;
55827;SDS011;41758;51.992;5.890;2022-09-03T13:01:43;3.17;;;1.25;;
55827;SDS011;41758;51.992;5.890;2022-09-03T13:04:13;2.53;;;1.35;;
55827;SDS011;41758;51.992;5.890;2022-09-03T13:06:52;4.05;;;1.45;;
55827;SDS011;41758;51.992;5.890;2022-09-03T13:09:38;5.25;;;1.50;;
55827;SDS011;41758;51.992;5.890;2022-09-03T13:12:05;3.90;;;1.45;;
55827;SDS011;41758;51.992;5.890;2022-09-03T13:14:45;6.10;;;1.67;;
55827;SDS011;41758;51.992;5.890;2022-09-03T13:26:10;3.83;;;1.60;;
55827;SDS011;41758;51.992;5.890;2022-09-03T13:34:29;4.15;;;1.70;;
55827;SDS011;41758;51.992;5.890;2022-09-03T13:39:34;3.30;;;1.80;;
55827;SDS011;41758;51.992;5.890;2022-09-03T13:44:56;3.40;;;1.67;;
55827;SDS011;41758;51.992;5.890;2022-09-03T13:47:55;3.40;;;1.63;;
55827;SDS011;41758;51.992;5.890;2022-09-03T13:51:01;3.97;;;1.70;;
55827;SDS011;41758;51.992;5.890;2022-09-03T13:59:12;3.58;;;1.52;;
55827;SDS011;41758;51.992;5.890;2022-09-03T14:04:50;4.13;;;1.80;;
55827;SDS011;41758;51.992;5.890;2022-09-03T14:07:23;4.32;;;1.85;;
55827;SDS011;41758;51.992;5.890;2022-09-03T14:10:04;4.00;;;1.75;;
55827;SDS011;41758;51.992;5.890;2022-09-03T14:15:31;3.65;;;1.70;;
55827;SDS011;41758;51.992;5.890;2022-09-03T14:21:04;3.95;;;1.70;;
55827;SDS011;41758;51.992;5.890;2022-09-03T14:26:17;4.93;;;1.90;;
55827;SDS011;41758;51.992;5.890;2022-09-03T14:28:56;3.25;;;1.70;;
55827;SDS011;41758;51.992;5.890;2022-09-03T14:31:31;3.40;;;1.50;;
55827;SDS011;41758;51.992;5.890;2022-09-03T14:37:00;3.92;;;1.83;;
55827;SDS011;41758;51.992;5.890;2022-09-03T14:56:28;4.55;;;1.98;;
55827;SDS011;41758;51.992;5.890;2022-09-03T14:59:18;6.18;;;1.85;;
55827;SDS011;41758;51.992;5.890;2022-09-03T15:10:31;4.32;;;1.90;;
55827;SDS011;41758;51.992;5.890;2022-09-03T15:13:17;4.10;;;1.80;;
55827;SDS011;41758;51.992;5.890;2022-09-03T15:16:07;4.47;;;1.85;;
55827;SDS011;41758;51.992;5.890;2022-09-03T15:21:33;4.20;;;1.92;;
55827;SDS011;41758;51.992;5.890;2022-09-03T15:27:44;3.17;;;2.00;;
55827;SDS011;41758;51.992;5.890;2022-09-03T15:30:20;2.90;;;1.73;;
55827;SDS011;41758;51.992;5.890;2022-09-03T15:35:28;3.33;;;1.60;;
55827;SDS011;41758;51.992;5.890;2022-09-03T15:41:01;4.07;;;2.10;;
55827;SDS011;41758;51.992;5.890;2022-09-03T15:43:32;12.10;;;2.30;;
55827;SDS011;41758;51.992;5.890;2022-09-03T15:45:59;8.82;;;2.15;;
55827;SDS011;41758;51.992;5.890;2022-09-03T15:51:30;4.43;;;1.90;;
55827;SDS011;41758;51.992;5.890;2022-09-03T15:54:02;4.20;;;2.00;;
55827;SDS011;41758;51.992;5.890;2022-09-03T15:56:36;5.65;;;2.80;;
55827;SDS011;41758;51.992;5.890;2022-09-03T16:04:42;6.25;;;2.53;;
55827;SDS011;41758;51.992;5.890;2022-09-03T16:07:37;5.07;;;2.08;;
55827;SDS011;41758;51.992;5.890;2022-09-03T16:10:19;5.30;;;2.50;;
55827;SDS011;41758;51.992;5.890;2022-09-03T16:20:31;3.63;;;2.00;;
55827;SDS011;41758;51.992;5.890;2022-09-03T16:28:35;6.00;;;1.90;;
55827;SDS011;41758;51.992;5.890;2022-09-03T16:42:26;7.85;;;1.95;;
55827;SDS011;41758;51.992;5.890;2022-09-03T16:59:48;5.50;;;2.15;;
55827;SDS011;41758;51.992;5.890;2022-09-03T17:02:28;7.35;;;2.60;;
55827;SDS011;41758;51.992;5.890;2022-09-03T17:05:30;6.10;;;2.38;;
55827;SDS011;41758;51.992;5.890;2022-09-03T17:19:17;9.50;;;5.55;;
55827;SDS011;41758;51.992;5.890;2022-09-03T17:41:31;5.07;;;2.30;;
55827;SDS011;41758;51.992;5.890;2022-09-03T17:46:57;6.90;;;2.60;;
55827;SDS011;41758;51.992;5.890;2022-09-03T17:49:45;5.95;;;3.00;;
55827;SDS011;41758;51.992;5.890;2022-09-03T17:54:52;5.40;;;2.60;;
55827;SDS011;41758;51.992;5.890;2022-09-03T18:02:54;6.82;;;2.60;;
55827;SDS011;41758;51.992;5.890;2022-09-03T18:05:27;6.82;;;2.97;;
55827;SDS011;41758;51.992;5.890;2022-09-03T18:16:06;6.25;;;3.05;;
55827;SDS011;41758;51.992;5.890;2022-09-03T18:18:51;4.45;;;2.40;;
55827;SDS011;41758;51.992;5.890;2022-09-03T18:21:21;5.43;;;2.70;;
55827;SDS011;41758;51.992;5.890;2022-09-03T18:30:00;5.65;;;2.75;;
55827;SDS011;41758;51.992;5.890;2022-09-03T18:32:46;4.72;;;2.70;;
55827;SDS011;41758;51.992;5.890;2022-09-03T18:35:31;17.35;;;3.30;;
55827;SDS011;41758;51.992;5.890;2022-09-03T18:38:22;6.95;;;2.63;;
55827;SDS011;41758;51.992;5.890;2022-09-03T18:41:18;8.55;;;2.75;;
55827;SDS011;41758;51.992;5.890;2022-09-03T18:50:28;8.40;;;3.30;;
55827;SDS011;41758;51.992;5.890;2022-09-03T18:59:14;6.25;;;4.00;;
55827;SDS011;41758;51.992;5.890;2022-09-03T19:02:22;7.45;;;3.85;;
55827;SDS011;41758;51.992;5.890;2022-09-03T19:05:16;9.00;;;3.70;;
55827;SDS011;41758;51.992;5.890;2022-09-03T19:11:07;6.05;;;3.35;;
55827;SDS011;41758;51.992;5.890;2022-09-03T19:14:21;5.93;;;3.47;;
55827;SDS011;41758;51.992;5.890;2022-09-03T19:17:22;6.50;;;4.72;;
55827;SDS011;41758;51.992;5.890;2022-09-03T19:20:34;7.60;;;5.35;;
55827;SDS011;41758;51.992;5.890;2022-09-03T19:23:20;6.57;;;4.32;;
55827;SDS011;41758;51.992;5.890;2022-09-03T19:26:14;8.48;;;5.10;;
55827;SDS011;41758;51.992;5.890;2022-09-03T19:29:08;6.65;;;4.47;;
55827;SDS011;41758;51.992;5.890;2022-09-03T19:32:00;9.20;;;4.53;;
55827;SDS011;41758;51.992;5.890;2022-09-03T19:35:13;5.95;;;3.92;;
55827;SDS011;41758;51.992;5.890;2022-09-03T19:43:54;6.32;;;3.80;;
55827;SDS011;41758;51.992;5.890;2022-09-03T19:46:50;6.18;;;3.55;;
55827;SDS011;41758;51.992;5.890;2022-09-03T19:55:51;8.60;;;3.92;;
55827;SDS011;41758;51.992;5.890;2022-09-03T19:58:38;7.95;;;4.47;;
55827;SDS011;41758;51.992;5.890;2022-09-03T20:01:30;7.93;;;4.68;;
55827;SDS011;41758;51.992;5.890;2022-09-03T20:04:17;7.20;;;4.55;;
55827;SDS011;41758;51.992;5.890;2022-09-03T20:07:05;6.65;;;4.65;;
55827;SDS011;41758;51.992;5.890;2022-09-03T20:09:51;8.77;;;5.00;;
55827;SDS011;41758;51.992;5.890;2022-09-03T20:12:39;8.15;;;4.50;;
55827;SDS011;41758;51.992;5.890;2022-09-03T20:15:09;5.88;;;3.45;;
55827;SDS011;41758;51.992;5.890;2022-09-03T20:20:39;5.80;;;3.90;;
55827;SDS011;41758;51.992;5.890;2022-09-03T20:23:17;6.63;;;3.95;;
55827;SDS011;41758;51.992;5.890;2022-09-03T20:25:59;6.57;;;3.70;;
55827;SDS011;41758;51.992;5.890;2022-09-03T20:36:18;8.32;;;3.85;;
55827;SDS011;41758;51.992;5.890;2022-09-03T20:55:50;5.80;;;3.90;;
55827;SDS011;41758;51.992;5.890;2022-09-03T20:58:21;7.93;;;4.15;;
55827;SDS011;41758;51.992;5.890;2022-09-03T21:01:05;6.93;;;4.20;;
55827;SDS011;41758;51.992;5.890;2022-09-03T21:03:56;6.93;;;4.22;;
55827;SDS011;41758;51.992;5.890;2022-09-03T21:11:47;7.32;;;3.88;;
55827;SDS011;41758;51.992;5.890;2022-09-03T21:20:23;5.93;;;3.63;;
55827;SDS011;41758;51.992;5.890;2022-09-03T21:22:57;6.63;;;3.72;;
55827;SDS011;41758;51.992;5.890;2022-09-03T21:28:05;5.78;;;3.78;;
55827;SDS011;41758;51.992;5.890;2022-09-03T21:30:40;7.97;;;3.90;;
55827;SDS011;41758;51.992;5.890;2022-09-03T21:33:11;9.05;;;3.40;;
55827;SDS011;41758;51.992;5.890;2022-09-03T21:36:02;5.72;;;3.50;;
55827;SDS011;41758;51.992;5.890;2022-09-03T21:38:39;5.20;;;3.10;;
55827;SDS011;41758;51.992;5.890;2022-09-03T21:41:13;5.22;;;3.72;;
55827;SDS011;41758;51.992;5.890;2022-09-03T21:43:48;5.97;;;3.33;;
55827;SDS011;41758;51.992;5.890;2022-09-03T21:46:19;6.35;;;3.20;;
55827;SDS011;41758;51.992;5.890;2022-09-03T21:48:55;5.82;;;3.20;;
55827;SDS011;41758;51.992;5.890;2022-09-03T21:51:40;6.15;;;3.30;;
55827;SDS011;41758;51.992;5.890;2022-09-03T21:54:23;5.55;;;3.30;;
55827;SDS011;41758;51.992;5.890;2022-09-03T22:04:33;7.45;;;3.58;;
55827;SDS011;41758;51.992;5.890;2022-09-03T22:09:36;6.40;;;3.72;;